sensor_id;sensor_type;location;lat;lon;timestamp;pressure;altitude;pressure_sealevel;temperature;humidity
68873;BME280;55907;50.806;12.882;2022-12-16T00:00:37;964.2;;;-2.5;72.0
68873;BME280;55907;50.806;12.882;2022-12-16T00:03:40;964.2;;;-2.5;72.1
68873;BME280;55907;50.806;12.882;2022-12-16T00:06:40;964.3;;;-2.6;73.0
68873;BME280;55907;50.806;12.882;2022-12-16T00:09:42;964.3;;;-2.7;73.6
68873;BME280;55907;50.806;12.882;2022-12-16T00:12:44;964.2;;;-2.8;73.8
68873;BME280;55907;50.806;12.882;2022-12-16T00:15:46;964.2;;;-2.8;73.6
68873;BME280;55907;50.806;12.882;2022-12-16T00:18:48;964.2;;;-2.8;73.6
68873;BME280;55907;50.806;12.882;2022-12-16T00:21:49;964.2;;;-2.8;73.3
68873;BME280;55907;50.806;12.882;2022-12-16T00:24:50;964.2;;;-2.8;73.7
68873;BME280;55907;50.806;12.882;2022-12-16T00:27:52;964.1;;;-2.7;73.5
68873;BME280;55907;50.806;12.882;2022-12-16T00:30:55;964.2;;;-2.8;74.0
68873;BME280;55907;50.806;12.882;2022-12-16T00:33:56;964.2;;;-2.8;74.1
68873;BME280;55907;50.806;12.882;2022-12-16T00:36:57;964.2;;;-2.8;73.7
68873;BME280;55907;50.806;12.882;2022-12-16T00:39:59;964.2;;;-2.9;74.0
68873;BME280;55907;50.806;12.882;2022-12-16T00:43:00;964.2;;;-2.9;73.8
68873;BME280;55907;50.806;12.882;2022-12-16T00:46:02;964.3;;;-2.8;72.8
68873;BME280;55907;50.806;12.882;2022-12-16T00:49:03;964.3;;;-2.8;72.4
68873;BME280;55907;50.806;12.882;2022-12-16T00:52:05;964.3;;;-2.7;72.3
68873;BME280;55907;50.806;12.882;2022-12-16T00:58:08;964.3;;;-2.8;72.4
68873;BME280;55907;50.806;12.882;2022-12-16T01:01:10;964.3;;;-2.9;72.4
68873;BME280;55907;50.806;12.882;2022-12-16T01:04:12;964.2;;;-2.9;72.4
68873;BME280;55907;50.806;12.882;2022-12-16T01:07:13;964.2;;;-2.8;unknown
68873;BME280;55907;50.806;12.882;2022-12-16T01:10:15;964.2;;;-2.7;71.9
68873;BME280;55907;50.806;12.882;2022-12-16T01:13:16;964.1;;;-2.6;71.9
68873;BME280;55907;50.806;12.882;2022-12-16T01:16:18;964.1;;;-2.5;71.7
68873;BME280;55907;50.806;12.882;2022-12-16T01:16:44;unavailable;;;unavailable;unavailable
68873;BME280;55907;50.806;12.882;2022-12-16T01:16:49;964.1;;;-2.5;71.7
68873;BME280;55907;50.806;12.882;2022-12-16T01:19:00;unavailable;;;unavailable;unavailable
68873;BME280;55907;50.806;12.882;2022-12-16T01:19:01;964.1;;;-2.5;71.6
68873;BME280;55907;50.806;12.882;2022-12-16T01:19:19;964.2;;;-2.4;71.7
68873;BME280;55907;50.806;12.882;2022-12-16T01:21:48;unavailable;;;unavailable;unavailable
68873;BME280;55907;50.806;12.882;2022-12-16T01:21:52;964.2;;;-2.3;70.9
68873;BME280;55907;50.806;12.882;2022-12-16T01:22:22;964.2;;;-2.2;71.0
68873;BME280;55907;50.806;12.882;2022-12-16T01:24:57;unavailable;;;unavailable;unavailable
68873;BME280;55907;50.806;12.882;2022-12-16T01:25:23;964.3;;;-2.1;70.8
68873;BME280;55907;50.806;12.882;2022-12-16T01:28:25;964.3;;;-2.1;70.4
68873;BME280;55907;50.806;12.882;2022-12-16T01:31:26;964.3;;;-2.0;69.6
68873;BME280;55907;50.806;12.882;2022-12-16T01:34:28;964.3;;;-2.0;68.9
68873;BME280;55907;50.806;12.882;2022-12-16T01:37:29;964.3;;;-2.0;68.9
68873;BME280;55907;50.806;12.882;2022-12-16T01:40:31;964.2;;;-2.1;68.1
68873;BME280;55907;50.806;12.882;2022-12-16T01:43:34;964.2;;;-2.2;68.1
68873;BME280;55907;50.806;12.882;2022-12-16T01:46:35;964.2;;;-2.2;68.0
68873;BME280;55907;50.806;12.882;2022-12-16T01:49:40;964.2;;;-2.3;67.8
68873;BME280;55907;50.806;12.882;2022-12-16T01:55:41;964.2;;;-2.2;68.3
68873;BME280;55907;50.806;12.882;2022-12-16T01:58:41;964.3;;;-2.2;68.1
68873;BME280;55907;50.806;12.882;2022-12-16T02:01:42;964.2;;;-2.3;67.6
68873;BME280;55907;50.806;12.882;2022-12-16T02:04:43;964.1;;;-2.3;67.0
68873;BME280;55907;50.806;12.882;2022-12-16T02:07:53;964.2;;;-2.4;67.5
68873;BME280;55907;50.806;12.882;2022-12-16T02:10:56;964.1;;;-2.4;67.7
68873;BME280;55907;50.806;12.882;2022-12-16T02:13:57;964.1;;;-2.4;68.0
68873;BME280;55907;50.806;12.882;2022-12-16T02:16:53;964.0;;;-2.4;67.4
68873;BME280;55907;50.806;12.882;2022-12-16T02:23:09;;;;-2.5;67.9
68873;BME280;55907;50.806;12.882;2022-12-16T02:26:09;964.1;;;-2.5;68.6
68873;BME280;55907;50.806;12.882;2022-12-16T02:29:11;964.1;;;-2.5;69.1
68873;BME280;55907;50.806;12.882;2022-12-16T02:32:04;964.1;;;-2.7;70.0
68873;BME280;55907;50.806;12.882;2022-12-16T02:35:06;964.0;;;-2.7;69.8
68873;BME280;55907;50.806;12.882;2022-12-16T02:38:10;963.9;;;-2.7;69.7
68873;BME280;55907;50.806;12.882;2022-12-16T02:41:06;963.9;;;-2.7;69.6
68873;BME280;55907;50.806;12.882;2022-12-16T02:44:07;964.0;;;-2.6;69.7
68873;BME280;55907;50.806;12.882;2022-12-16T02:47:06;963.9;;;-2.6;69.5
68873;BME280;55907;50.806;12.882;2022-12-16T02:50:17;963.9;;;-2.5;69.2
68873;BME280;55907;50.806;12.882;2022-12-16T02:53:10;963.9;;;-2.5;68.7
68873;BME280;55907;50.806;12.882;2022-12-16T02:56:19;963.9;;;-2.5;68.8
68873;BME280;55907;50.806;12.882;2022-12-16T02:59:16;964.0;;;-2.5;68.9
68873;BME280;55907;50.806;12.882;2022-12-16T03:02:19;963.9;;;-2.5;68.7
68873;BME280;55907;50.806;12.882;2022-12-16T03:05:20;963.9;;;-2.5;68.7
68873;BME280;55907;50.806;12.882;2022-12-16T03:08:21;963.9;;;-2.5;68.6
68873;BME280;55907;50.806;12.882;2022-12-16T03:11:20;963.9;;;-2.5;68.6
68873;BME280;55907;50.806;12.882;2022-12-16T03:14:24;963.9;;;-2.5;68.4
68873;BME280;55907;50.806;12.882;2022-12-16T03:17:24;963.9;;;-2.4;68.3
68873;BME280;55907;50.806;12.882;2022-12-16T03:23:31;963.9;;;-2.4;68.0
68873;BME280;55907;50.806;12.882;2022-12-16T03:26:30;963.9;;;-2.4;68.0
68873;BME280;55907;50.806;12.882;2022-12-16T03:29:36;964.0;;;-2.4;68.1
68873;BME280;55907;50.806;12.882;2022-12-16T03:32:34;964.0;;;-2.4;68.0
68873;BME280;55907;50.806;12.882;2022-12-16T03:35:35;964.0;;;-2.5;68.1
68873;BME280;55907;50.806;12.882;2022-12-16T03:38:35;964.0;;;-2.6;68.3
68873;BME280;55907;50.806;12.882;2022-12-16T03:41:35;964.0;;;-2.7;68.8
68873;BME280;55907;50.806;12.882;2022-12-16T03:44:37;964.0;;;-2.6;68.8
68873;BME280;55907;50.806;12.882;2022-12-16T03:47:38;964.0;;;-2.6;69.0
68873;BME280;55907;50.806;12.882;2022-12-16T03:50:40;964.0;;;-2.6;69.0
68873;BME280;55907;50.806;12.882;2022-12-16T03:53:42;964.0;;;-2.5;68.8
68873;BME280;55907;50.806;12.882;2022-12-16T03:56:43;964.1;;;-2.5;69.0
68873;BME280;55907;50.806;12.882;2022-12-16T03:59:45;964.1;;;-2.5;68.7
68873;BME280;55907;50.806;12.882;2022-12-16T04:02:47;964.1;;;-2.5;68.7
68873;BME280;55907;50.806;12.882;2022-12-16T04:05:48;964.2;;;-2.5;68.6
68873;BME280;55907;50.806;12.882;2022-12-16T04:08:50;964.2;;;-2.5;69.1
68873;BME280;55907;50.806;12.882;2022-12-16T04:11:51;964.2;;;-2.4;69.1
68873;BME280;55907;50.806;12.882;2022-12-16T04:14:53;964.2;;;-2.4;68.8
68873;BME280;55907;50.806;12.882;2022-12-16T04:17:55;964.1;;;-2.3;68.6
68873;BME280;55907;50.806;12.882;2022-12-16T04:20:56;964.2;;;-2.3;69.1
68873;BME280;55907;50.806;12.882;2022-12-16T04:23:58;964.2;;;-2.3;68.8
68873;BME280;55907;50.806;12.882;2022-12-16T04:26:59;964.2;;;-2.2;68.2
68873;BME280;55907;50.806;12.882;2022-12-16T04:30:01;964.3;;;-2.1;69.1
68873;BME280;55907;50.806;12.882;2022-12-16T04:33:05;964.3;;;-1.8;68.5
68873;BME280;55907;50.806;12.882;2022-12-16T04:36:05;964.3;;;-1.7;68.3
68873;BME280;55907;50.806;12.882;2022-12-16T04:39:06;964.4;;;-1.7;68.1
68873;BME280;55907;50.806;12.882;2022-12-16T04:42:07;964.4;;;-1.6;67.8
68873;BME280;55907;50.806;12.882;2022-12-16T04:45:09;964.5;;;-1.7;67.6
68873;BME280;55907;50.806;12.882;2022-12-16T04:48:10;964.5;;;-1.8;68.1
68873;BME280;55907;50.806;12.882;2022-12-16T04:51:12;964.5;;;-1.8;68.1
68873;BME280;55907;50.806;12.882;2022-12-16T04:54:14;964.4;;;-1.8;68.2
68873;BME280;55907;50.806;12.882;2022-12-16T04:57:15;964.4;;;-1.9;68.2
68873;BME280;55907;50.806;12.882;2022-12-16T05:00:17;964.5;;;-1.9;68.0
68873;BME280;55907;50.806;12.882;2022-12-16T05:03:19;964.4;;;-1.9;68.5
68873;BME280;55907;50.806;12.882;2022-12-16T05:06:20;964.4;;;-2.0;68.2
68873;BME280;55907;50.806;12.882;2022-12-16T05:09:22;964.5;;;-2.0;68.3
68873;BME280;55907;50.806;12.882;2022-12-16T05:12:23;964.5;;;-2.0;68.1
68873;BME280;55907;50.806;12.882;2022-12-16T05:15:25;964.5;;;-2.0;68.4
68873;BME280;55907;50.806;12.882;2022-12-16T05:18:27;964.5;;;-2.1;68.5
68873;BME280;55907;50.806;12.882;2022-12-16T05:21:28;964.7;;;-2.1;68.6
68873;BME280;55907;50.806;12.882;2022-12-16T05:24:30;964.6;;;-2.1;68.6
68873;BME280;55907;50.806;12.882;2022-12-16T05:27:32;964.7;;;-2.1;68.3
68873;BME280;55907;50.806;12.882;2022-12-16T05:30:33;964.8;;;-2.2;68.4
68873;BME280;55907;50.806;12.882;2022-12-16T05:33:35;964.7;;;-2.3;69.2
68873;BME280;55907;50.806;12.882;2022-12-16T05:36:37;964.8;;;-2.3;68.4
68873;BME280;55907;50.806;12.882;2022-12-16T05:39:38;964.8;;;-2.3;68.8
68873;BME280;55907;50.806;12.882;2022-12-16T05:42:39;964.8;;;-2.4;69.0
68873;BME280;55907;50.806;12.882;2022-12-16T05:45:41;964.8;;;-2.5;68.7
68873;BME280;55907;50.806;12.882;2022-12-16T05:48:43;964.9;;;-2.6;69.5
68873;BME280;55907;50.806;12.882;2022-12-16T05:51:44;964.9;;;-2.6;70.0
68873;BME280;55907;50.806;12.882;2022-12-16T05:54:46;964.9;;;-2.6;70.0
68873;BME280;55907;50.806;12.882;2022-12-16T05:57:48;965.0;;;-2.7;70.0
68873;BME280;55907;50.806;12.882;2022-12-16T06:00:50;965.1;;;-2.6;70.0
68873;BME280;55907;50.806;12.882;2022-12-16T06:03:51;965.0;;;-2.7;70.5
68873;BME280;55907;50.806;12.882;2022-12-16T06:06:52;965.1;;;-2.7;70.6
68873;BME280;55907;50.806;12.882;2022-12-16T06:09:54;965.0;;;-2.7;70.4
68873;BME280;55907;50.806;12.882;2022-12-16T06:12:56;965.1;;;-2.8;70.9
68873;BME280;55907;50.806;12.882;2022-12-16T06:15:57;965.1;;;-3.0;71.3
68873;BME280;55907;50.806;12.882;2022-12-16T06:18:59;965.3;;;-3.0;71.8
68873;BME280;55907;50.806;12.882;2022-12-16T06:22:00;965.2;;;-3.1;72.1
68873;BME280;55907;50.806;12.882;2022-12-16T06:25:03;965.3;;;-3.2;72.2
68873;BME280;55907;50.806;12.882;2022-12-16T06:28:04;965.4;;;-3.2;72.6
68873;BME280;55907;50.806;12.882;2022-12-16T06:31:06;965.5;;;-3.1;72.4
68873;BME280;55907;50.806;12.882;2022-12-16T06:34:07;965.5;;;-3.0;72.3
68873;BME280;55907;50.806;12.882;2022-12-16T06:37:09;965.4;;;-3.0;72.1
68873;BME280;55907;50.806;12.882;2022-12-16T06:40:10;965.5;;;-3.0;72.0
68873;BME280;55907;50.806;12.882;2022-12-16T06:43:12;965.5;;;-3.1;72.2
68873;BME280;55907;50.806;12.882;2022-12-16T06:46:13;965.5;;;-3.2;72.1
68873;BME280;55907;50.806;12.882;2022-12-16T06:49:15;965.5;;;-3.2;72.2
68873;BME280;55907;50.806;12.882;2022-12-16T06:51:48;unavailable;;;unavailable;unavailable
68873;BME280;55907;50.806;12.882;2022-12-16T06:51:50;965.7;;;-3.2;72.5
68873;BME280;55907;50.806;12.882;2022-12-16T06:52:17;965.7;;;-3.2;72.4
68873;BME280;55907;50.806;12.882;2022-12-16T06:55:18;965.7;;;-3.0;72.8
68873;BME280;55907;50.806;12.882;2022-12-16T06:58:20;965.8;;;-3.0;72.3
68873;BME280;55907;50.806;12.882;2022-12-16T07:04:23;965.8;;;-2.9;71.9
68873;BME280;55907;50.806;12.882;2022-12-16T07:07:25;965.9;;;-2.9;71.7
68873;BME280;55907;50.806;12.882;2022-12-16T07:10:26;966.0;;;-2.9;71.8
68873;BME280;55907;50.806;12.882;2022-12-16T07:13:28;966.0;;;-3.0;71.9
68873;BME280;55907;50.806;12.882;2022-12-16T07:16:30;966.1;;;-2.9;71.7
68873;BME280;55907;50.806;12.882;2022-12-16T07:19:31;966.1;;;-3.0;71.7
68873;BME280;55907;50.806;12.882;2022-12-16T07:22:33;966.1;;;-3.0;72.1
68873;BME280;55907;50.806;12.882;2022-12-16T07:25:35;966.2;;;-3.0;72.2
68873;BME280;55907;50.806;12.882;2022-12-16T07:28:36;966.3;;;-3.0;71.8
68873;BME280;55907;50.806;12.882;2022-12-16T07:31:38;966.3;;;-2.9;70.9
68873;BME280;55907;50.806;12.882;2022-12-16T07:34:39;966.4;;;-2.8;71.1
68873;BME280;55907;50.806;12.882;2022-12-16T07:37:42;966.4;;;-2.7;71.0
68873;BME280;55907;50.806;12.882;2022-12-16T07:40:46;966.5;;;-2.6;70.3
68873;BME280;55907;50.806;12.882;2022-12-16T07:43:46;966.5;;;-2.6;70.4
68873;BME280;55907;50.806;12.882;2022-12-16T07:46:48;966.5;;;-2.6;70.5
68873;BME280;55907;50.806;12.882;2022-12-16T07:49:48;966.5;;;-2.5;70.1
68873;BME280;55907;50.806;12.882;2022-12-16T07:52:52;966.5;;;-2.5;70.0
68873;BME280;55907;50.806;12.882;2022-12-16T07:55:51;966.5;;;-2.5;69.5
68873;BME280;55907;50.806;12.882;2022-12-16T07:58:53;966.5;;;-2.5;69.7
68873;BME280;55907;50.806;12.882;2022-12-16T08:01:55;966.5;;;-2.4;69.4
68873;BME280;55907;50.806;12.882;2022-12-16T08:04:56;966.6;;;-2.4;68.6
68873;BME280;55907;50.806;12.882;2022-12-16T08:07:57;966.6;;;-2.4;68.7
68873;BME280;55907;50.806;12.882;2022-12-16T08:10:59;966.6;;;-2.5;69.0
68873;BME280;55907;50.806;12.882;2022-12-16T08:14:00;966.6;;;-2.5;69.2
68873;BME280;55907;50.806;12.882;2022-12-16T08:17:02;966.7;;;-2.5;69.6
68873;BME280;55907;50.806;12.882;2022-12-16T08:20:05;966.7;;;-2.5;69.7
68873;BME280;55907;50.806;12.882;2022-12-16T08:23:05;966.8;;;-2.4;70.1
68873;BME280;55907;50.806;12.882;2022-12-16T08:26:07;966.8;;;-2.5;70.1
68873;BME280;55907;50.806;12.882;2022-12-16T08:29:09;967.0;;;-2.3;69.5
68873;BME280;55907;50.806;12.882;2022-12-16T08:32:10;967.0;;;-2.2;69.5
68873;BME280;55907;50.806;12.882;2022-12-16T08:35:12;967.0;;;-2.0;69.1
68873;BME280;55907;50.806;12.882;2022-12-16T08:38:13;967.2;;;-1.9;68.1
68873;BME280;55907;50.806;12.882;2022-12-16T08:41:15;967.2;;;-1.9;67.8
68873;BME280;55907;50.806;12.882;2022-12-16T08:44:17;967.2;;;-1.8;66.8
68873;BME280;55907;50.806;12.882;2022-12-16T08:47:18;967.2;;;-1.8;67.0
68873;BME280;55907;50.806;12.882;2022-12-16T08:50:20;967.2;;;-1.8;66.9
68873;BME280;55907;50.806;12.882;2022-12-16T08:53:21;967.2;;;-1.9;66.0
68873;BME280;55907;50.806;12.882;2022-12-16T08:56:23;967.3;;;-2.0;66.1
68873;BME280;55907;50.806;12.882;2022-12-16T08:59:25;967.3;;;-2.0;66.9
68873;BME280;55907;50.806;12.882;2022-12-16T09:02:26;967.3;;;-1.9;67.2
68873;BME280;55907;50.806;12.882;2022-12-16T09:05:28;967.3;;;-1.7;66.4
68873;BME280;55907;50.806;12.882;2022-12-16T09:08:30;967.3;;;-1.6;66.5
68873;BME280;55907;50.806;12.882;2022-12-16T09:11:31;967.4;;;-1.5;65.3
68873;BME280;55907;50.806;12.882;2022-12-16T09:14:33;967.4;;;-1.4;65.1
68873;BME280;55907;50.806;12.882;2022-12-16T09:17:34;967.5;;;-1.0;64.5
68873;BME280;55907;50.806;12.882;2022-12-16T09:20:36;967.5;;;-0.6;63.1
68873;BME280;55907;50.806;12.882;2022-12-16T09:23:38;967.5;;;-0.4;62.1
68873;BME280;55907;50.806;12.882;2022-12-16T09:26:39;967.5;;;-0.4;61.9
68873;BME280;55907;50.806;12.882;2022-12-16T09:29:41;967.6;;;-0.4;61.1
68873;BME280;55907;50.806;12.882;2022-12-16T09:32:43;967.6;;;-0.6;61.3
68873;BME280;55907;50.806;12.882;2022-12-16T09:35:44;967.6;;;-0.3;61.7
68873;BME280;55907;50.806;12.882;2022-12-16T09:38:45;967.5;;;-0.0;61.2
68873;BME280;55907;50.806;12.882;2022-12-16T09:41:56;967.6;;;0.8;59.1
68873;BME280;55907;50.806;12.882;2022-12-16T09:44:54;967.6;;;1.7;56.6
68873;BME280;55907;50.806;12.882;2022-12-16T09:47:53;967.7;;;2.3;55.5
68873;BME280;55907;50.806;12.882;2022-12-16T09:50:53;967.7;;;2.2;53.8
68873;BME280;55907;50.806;12.882;2022-12-16T09:53:55;967.8;;;1.4;55.6
68873;BME280;55907;50.806;12.882;2022-12-16T09:56:56;967.8;;;0.7;56.8
68873;BME280;55907;50.806;12.882;2022-12-16T10:00:00;967.8;;;0.3;58.7
68873;BME280;55907;50.806;12.882;2022-12-16T10:02:59;967.8;;;0.1;59.3
68873;BME280;55907;50.806;12.882;2022-12-16T10:06:04;967.9;;;-0.2;59.5
68873;BME280;55907;50.806;12.882;2022-12-16T10:09:07;967.9;;;-0.6;60.7
68873;BME280;55907;50.806;12.882;2022-12-16T10:12:10;968.0;;;-0.8;61.5
68873;BME280;55907;50.806;12.882;2022-12-16T10:15:15;968.0;;;-1.1;62.5
68873;BME280;55907;50.806;12.882;2022-12-16T10:18:13;968.0;;;-1.3;63.2
68873;BME280;55907;50.806;12.882;2022-12-16T10:21:10;968.0;;;-1.3;63.7
68873;BME280;55907;50.806;12.882;2022-12-16T10:24:17;968.1;;;-1.4;63.9
68873;BME280;55907;50.806;12.882;2022-12-16T10:27:13;968.1;;;-1.4;64.5
68873;BME280;55907;50.806;12.882;2022-12-16T10:30:13;968.1;;;-1.4;64.4
68873;BME280;55907;50.806;12.882;2022-12-16T10:33:14;968.1;;;-1.2;64.0
68873;BME280;55907;50.806;12.882;2022-12-16T10:36:19;968.2;;;-1.0;63.9
68873;BME280;55907;50.806;12.882;2022-12-16T10:39:22;968.2;;;-0.7;63.2
68873;BME280;55907;50.806;12.882;2022-12-16T10:42:22;968.2;;;-0.8;63.4
68873;BME280;55907;50.806;12.882;2022-12-16T10:45:24;968.2;;;-0.9;63.5
68873;BME280;55907;50.806;12.882;2022-12-16T10:48:25;968.2;;;-1.0;63.7
68873;BME280;55907;50.806;12.882;2022-12-16T10:51:27;968.2;;;-1.1;64.1
68873;BME280;55907;50.806;12.882;2022-12-16T10:54:31;968.2;;;-1.4;64.7
68873;BME280;55907;50.806;12.882;2022-12-16T10:57:33;968.3;;;-1.5;65.2
68873;BME280;55907;50.806;12.882;2022-12-16T11:00:38;968.3;;;-1.6;65.8
68873;BME280;55907;50.806;12.882;2022-12-16T11:03:32;968.3;;;-1.6;66.0
68873;BME280;55907;50.806;12.882;2022-12-16T11:06:36;968.3;;;-1.5;65.7
68873;BME280;55907;50.806;12.882;2022-12-16T11:09:33;968.4;;;-1.4;65.3
68873;BME280;55907;50.806;12.882;2022-12-16T11:12:35;968.4;;;-1.4;65.8
68873;BME280;55907;50.806;12.882;2022-12-16T11:15:36;968.3;;;-1.5;66.3
68873;BME280;55907;50.806;12.882;2022-12-16T11:18:48;968.3;;;-1.6;66.4
68873;BME280;55907;50.806;12.882;2022-12-16T11:21:40;968.3;;;-1.7;67.1
68873;BME280;55907;50.806;12.882;2022-12-16T11:24:41;968.4;;;-1.8;67.6
68873;BME280;55907;50.806;12.882;2022-12-16T11:27:43;968.3;;;-1.8;67.9
68873;BME280;55907;50.806;12.882;2022-12-16T11:30:50;968.4;;;-2.0;68.0
68873;BME280;55907;50.806;12.882;2022-12-16T11:33:47;968.4;;;-2.1;68.8
68873;BME280;55907;50.806;12.882;2022-12-16T11:36:48;968.4;;;-2.0;68.7
68873;BME280;55907;50.806;12.882;2022-12-16T11:39:49;968.4;;;-1.9;68.6
68873;BME280;55907;50.806;12.882;2022-12-16T11:42:51;968.5;;;-1.8;68.3
68873;BME280;55907;50.806;12.882;2022-12-16T11:45:52;968.5;;;-2.0;69.2
68873;BME280;55907;50.806;12.882;2022-12-16T11:48:57;968.5;;;-2.0;69.0
68873;BME280;55907;50.806;12.882;2022-12-16T11:52:00;968.6;;;-2.0;69.3
68873;BME280;55907;50.806;12.882;2022-12-16T11:55:03;968.6;;;-1.9;69.3
68873;BME280;55907;50.806;12.882;2022-12-16T11:58:04;968.6;;;-1.8;68.9
68873;BME280;55907;50.806;12.882;2022-12-16T12:01:04;968.7;;;-1.9;68.6
68873;BME280;55907;50.806;12.882;2022-12-16T12:04:02;968.6;;;-2.0;69.0
68873;BME280;55907;50.806;12.882;2022-12-16T12:10:11;968.7;;;-2.3;70.0
68873;BME280;55907;50.806;12.882;2022-12-16T12:13:20;968.7;;;-2.4;70.8
68873;BME280;55907;50.806;12.882;2022-12-16T12:16:14;968.7;;;-2.4;70.7
68873;BME280;55907;50.806;12.882;2022-12-16T12:19:13;968.7;;;-2.3;70.6
68873;BME280;55907;50.806;12.882;2022-12-16T12:22:21;968.7;;;-2.4;71.0
68873;BME280;55907;50.806;12.882;2022-12-16T12:25:19;968.7;;;-2.3;71.5
68873;BME280;55907;50.806;12.882;2022-12-16T12:28:21;968.7;;;-2.3;70.6
68873;BME280;55907;50.806;12.882;2022-12-16T12:31:24;968.8;;;-2.4;70.2
68873;BME280;55907;50.806;12.882;2022-12-16T12:34:24;968.8;;;-2.5;70.7
68873;BME280;55907;50.806;12.882;2022-12-16T12:37:25;968.9;;;-2.5;70.6
68873;BME280;55907;50.806;12.882;2022-12-16T12:40:28;968.9;;;-2.6;70.8
68873;BME280;55907;50.806;12.882;2022-12-16T12:43:29;968.9;;;-2.7;70.7
68873;BME280;55907;50.806;12.882;2022-12-16T12:46:29;969.0;;;-2.8;71.4
68873;BME280;55907;50.806;12.882;2022-12-16T12:49:32;968.9;;;-2.8;71.3
68873;BME280;55907;50.806;12.882;2022-12-16T12:52:43;969.0;;;-2.8;72.1
68873;BME280;55907;50.806;12.882;2022-12-16T12:55:35;969.0;;;-2.8;72.8
68873;BME280;55907;50.806;12.882;2022-12-16T12:58:33;969.1;;;-2.9;73.1
68873;BME280;55907;50.806;12.882;2022-12-16T13:01:33;969.2;;;-2.9;73.7
68873;BME280;55907;50.806;12.882;2022-12-16T13:04:35;969.2;;;-2.8;73.5
68873;BME280;55907;50.806;12.882;2022-12-16T13:07:36;969.3;;;-2.6;72.4
68873;BME280;55907;50.806;12.882;2022-12-16T13:10:38;969.2;;;-2.6;unknown
68873;BME280;55907;50.806;12.882;2022-12-16T13:13:39;969.3;;;-2.6;72.0
68873;BME280;55907;50.806;12.882;2022-12-16T13:16:55;969.3;;;-2.5;72.2
68873;BME280;55907;50.806;12.882;2022-12-16T13:19:43;969.4;;;-2.6;72.4
68873;BME280;55907;50.806;12.882;2022-12-16T13:22:45;969.4;;;-2.7;72.1
68873;BME280;55907;50.806;12.882;2022-12-16T13:25:50;969.5;;;-2.9;72.9
68873;BME280;55907;50.806;12.882;2022-12-16T13:29:01;969.5;;;-2.9;72.7
68873;BME280;55907;50.806;12.882;2022-12-16T13:31:59;969.6;;;-3.0;72.4
68873;BME280;55907;50.806;12.882;2022-12-16T13:34:58;969.7;;;-3.0;72.3
68873;BME280;55907;50.806;12.882;2022-12-16T13:37:53;969.6;;;-3.1;72.7
68873;BME280;55907;50.806;12.882;2022-12-16T13:40:56;969.7;;;-3.2;72.9
68873;BME280;55907;50.806;12.882;2022-12-16T13:43:57;969.7;;;-3.2;73.5
68873;BME280;55907;50.806;12.882;2022-12-16T13:46:57;969.8;;;-3.3;73.3
68873;BME280;55907;50.806;12.882;2022-12-16T13:53:02;969.8;;;-3.4;73.7
68873;BME280;55907;50.806;12.882;2022-12-16T13:56:04;969.9;;;-3.3;73.1
68873;BME280;55907;50.806;12.882;2022-12-16T13:59:07;970.0;;;-3.3;73.4
68873;BME280;55907;50.806;12.882;2022-12-16T14:02:20;970.0;;;-3.4;73.4
68873;BME280;55907;50.806;12.882;2022-12-16T14:05:17;970.0;;;-3.4;73.4
68873;BME280;55907;50.806;12.882;2022-12-16T14:08:13;970.1;;;-3.5;73.8
68873;BME280;55907;50.806;12.882;2022-12-16T14:11:15;970.1;;;-3.5;74.2
68873;BME280;55907;50.806;12.882;2022-12-16T14:14:16;970.2;;;-3.7;74.8
68873;BME280;55907;50.806;12.882;2022-12-16T14:17:18;970.3;;;-3.8;75.7
68873;BME280;55907;50.806;12.882;2022-12-16T14:20:20;970.4;;;-3.9;75.4
68873;BME280;55907;50.806;12.882;2022-12-16T14:23:27;970.4;;;-3.9;75.4
68873;BME280;55907;50.806;12.882;2022-12-16T14:26:19;970.5;;;-4.0;75.8
68873;BME280;55907;50.806;12.882;2022-12-16T14:29:21;970.5;;;-4.0;75.9
68873;BME280;55907;50.806;12.882;2022-12-16T14:32:27;970.5;;;-4.0;75.5
68873;BME280;55907;50.806;12.882;2022-12-16T14:35:25;970.5;;;-4.0;76.0
68873;BME280;55907;50.806;12.882;2022-12-16T14:38:27;970.7;;;-4.0;75.7
68873;BME280;55907;50.806;12.882;2022-12-16T14:41:26;970.7;;;-4.1;76.2
68873;BME280;55907;50.806;12.882;2022-12-16T14:44:28;970.8;;;-4.2;76.6
68873;BME280;55907;50.806;12.882;2022-12-16T14:47:30;970.8;;;-4.2;77.0
68873;BME280;55907;50.806;12.882;2022-12-16T14:50:31;970.8;;;-4.2;77.6
68873;BME280;55907;50.806;12.882;2022-12-16T14:53:33;970.9;;;-4.3;78.2
68873;BME280;55907;50.806;12.882;2022-12-16T14:56:35;970.9;;;-4.3;78.0
68873;BME280;55907;50.806;12.882;2022-12-16T14:59:36;970.8;;;-4.4;78.7
68873;BME280;55907;50.806;12.882;2022-12-16T15:02:39;970.9;;;-4.4;78.7
68873;BME280;55907;50.806;12.882;2022-12-16T15:08:47;970.9;;;-4.5;80.0
68873;BME280;55907;50.806;12.882;2022-12-16T15:11:43;971.0;;;-4.5;79.9
68873;BME280;55907;50.806;12.882;2022-12-16T15:14:45;971.0;;;-4.5;80.0
68873;BME280;55907;50.806;12.882;2022-12-16T15:17:49;971.0;;;-4.5;80.2
68873;BME280;55907;50.806;12.882;2022-12-16T15:20:51;971.0;;;-4.5;80.2
68873;BME280;55907;50.806;12.882;2022-12-16T15:23:49;971.1;;;-4.5;80.2
68873;BME280;55907;50.806;12.882;2022-12-16T15:29:53;971.2;;;-4.6;80.6
68873;BME280;55907;50.806;12.882;2022-12-16T15:32:54;971.3;;;-4.6;80.8
68873;BME280;55907;50.806;12.882;2022-12-16T15:35:59;971.3;;;-4.5;80.6
68873;BME280;55907;50.806;12.882;2022-12-16T15:38:58;971.4;;;-4.5;81.1
68873;BME280;55907;50.806;12.882;2022-12-16T15:41:59;971.4;;;-4.5;80.9
68873;BME280;55907;50.806;12.882;2022-12-16T15:45:02;971.5;;;-4.5;80.9
68873;BME280;55907;50.806;12.882;2022-12-16T15:48:11;971.5;;;-4.4;79.5
68873;BME280;55907;50.806;12.882;2022-12-16T15:51:23;971.6;;;-4.4;79.3
68873;BME280;55907;50.806;12.882;2022-12-16T15:54:14;971.6;;;-4.3;79.1
68873;BME280;55907;50.806;12.882;2022-12-16T15:57:26;971.7;;;-4.2;78.5
68873;BME280;55907;50.806;12.882;2022-12-16T16:00:19;971.8;;;-4.2;78.3
68873;BME280;55907;50.806;12.882;2022-12-16T16:03:19;971.9;;;-4.2;78.2
68873;BME280;55907;50.806;12.882;2022-12-16T16:06:15;971.9;;;-4.2;78.0
68873;BME280;55907;50.806;12.882;2022-12-16T16:09:18;971.9;;;-4.2;78.1
68873;BME280;55907;50.806;12.882;2022-12-16T16:12:17;971.8;;;-4.2;77.9
68873;BME280;55907;50.806;12.882;2022-12-16T16:15:18;971.8;;;-4.3;77.7
68873;BME280;55907;50.806;12.882;2022-12-16T16:18:19;971.8;;;-4.4;77.8
68873;BME280;55907;50.806;12.882;2022-12-16T16:21:21;971.9;;;-4.4;78.0
68873;BME280;55907;50.806;12.882;2022-12-16T16:24:23;971.9;;;-4.4;77.9
68873;BME280;55907;50.806;12.882;2022-12-16T16:27:25;972.0;;;-4.5;78.0
68873;BME280;55907;50.806;12.882;2022-12-16T16:30:26;972.0;;;-4.5;78.2
68873;BME280;55907;50.806;12.882;2022-12-16T16:33:28;972.0;;;-4.5;78.3
68873;BME280;55907;50.806;12.882;2022-12-16T16:36:30;972.1;;;-4.5;79.2
68873;BME280;55907;50.806;12.882;2022-12-16T16:39:31;972.1;;;-4.5;78.2
68873;BME280;55907;50.806;12.882;2022-12-16T16:42:32;972.2;;;-4.6;78.8
68873;BME280;55907;50.806;12.882;2022-12-16T16:45:34;972.2;;;-4.6;78.6
68873;BME280;55907;50.806;12.882;2022-12-16T16:48:36;972.2;;;-4.6;78.6
68873;BME280;55907;50.806;12.882;2022-12-16T16:51:37;972.2;;;-4.5;78.9